sensor_id;sensor_type;location;lat;lon;timestamp;P1;durP1;ratioP1;P2;durP2;ratioP2
56537;SDS011;42435;53.292;6.000;2022-08-19T00:01:42;6.60;;;4.05;;
56537;SDS011;42435;53.292;6.000;2022-08-19T00:04:10;5.25;;;3.47;;
56537;SDS011;42435;53.292;6.000;2022-08-19T00:06:38;9.35;;;5.13;;
56537;SDS011;42435;53.292;6.000;2022-08-19T00:09:06;8.38;;;4.65;;
56537;SDS011;42435;53.292;6.000;2022-08-19T00:11:33;8.55;;;5.15;;
56537;SDS011;42435;53.292;6.000;2022-08-19T00:14:00;6.07;;;3.88;;
56537;SDS011;42435;53.292;6.000;2022-08-19T00:16:26;8.25;;;5.18;;
56537;SDS011;42435;53.292;6.000;2022-08-19T00:18:52;7.78;;;5.25;;
56537;SDS011;42435;53.292;6.000;2022-08-19T00:21:20;6.30;;;4.05;;
56537;SDS011;42435;53.292;6.000;2022-08-19T00:23:46;9.77;;;5.00;;
56537;SDS011;42435;53.292;6.000;2022-08-19T00:26:11;5.95;;;3.95;;
56537;SDS011;42435;53.292;6.000;2022-08-19T00:28:37;7.28;;;4.60;;
56537;SDS011;42435;53.292;6.000;2022-08-19T00:33:30;5.70;;;3.38;;
56537;SDS011;42435;53.292;6.000;2022-08-19T00:36:00;8.52;;;5.22;;
56537;SDS011;42435;53.292;6.000;2022-08-19T00:38:26;9.68;;;4.43;;
56537;SDS011;42435;53.292;6.000;2022-08-19T00:40:52;9.60;;;4.47;;
56537;SDS011;42435;53.292;6.000;2022-08-19T00:43:20;6.93;;;3.92;;
56537;SDS011;42435;53.292;6.000;2022-08-19T00:45:47;7.32;;;4.32;;
56537;SDS011;42435;53.292;6.000;2022-08-19T00:48:13;9.02;;;4.88;;
56537;SDS011;42435;53.292;6.000;2022-08-19T00:50:39;6.65;;;4.10;;
56537;SDS011;42435;53.292;6.000;2022-08-19T00:53:07;9.90;;;5.35;;
56537;SDS011;42435;53.292;6.000;2022-08-19T00:55:35;8.65;;;4.38;;
56537;SDS011;42435;53.292;6.000;2022-08-19T00:58:04;5.63;;;4.05;;
56537;SDS011;42435;53.292;6.000;2022-08-19T01:00:33;9.38;;;4.55;;
56537;SDS011;42435;53.292;6.000;2022-08-19T01:03:02;8.05;;;4.75;;
56537;SDS011;42435;53.292;6.000;2022-08-19T01:05:31;5.90;;;4.07;;
56537;SDS011;42435;53.292;6.000;2022-08-19T01:07:59;8.85;;;6.00;;
56537;SDS011;42435;53.292;6.000;2022-08-19T01:10:29;9.35;;;4.72;;
56537;SDS011;42435;53.292;6.000;2022-08-19T01:12:58;6.45;;;4.15;;
56537;SDS011;42435;53.292;6.000;2022-08-19T01:15:26;7.43;;;4.50;;
56537;SDS011;42435;53.292;6.000;2022-08-19T01:17:57;7.32;;;3.53;;
56537;SDS011;42435;53.292;6.000;2022-08-19T01:20:26;6.68;;;3.55;;
56537;SDS011;42435;53.292;6.000;2022-08-19T01:22:52;6.18;;;4.10;;
56537;SDS011;42435;53.292;6.000;2022-08-19T01:25:21;7.68;;;4.03;;
56537;SDS011;42435;53.292;6.000;2022-08-19T01:27:51;5.82;;;3.85;;
56537;SDS011;42435;53.292;6.000;2022-08-19T01:30:26;8.60;;;4.47;;
56537;SDS011;42435;53.292;6.000;2022-08-19T01:32:57;9.25;;;6.45;;
56537;SDS011;42435;53.292;6.000;2022-08-19T01:35:28;6.88;;;4.38;;
56537;SDS011;42435;53.292;6.000;2022-08-19T01:38:06;7.03;;;4.07;;
56537;SDS011;42435;53.292;6.000;2022-08-19T01:40:36;6.88;;;4.20;;
56537;SDS011;42435;53.292;6.000;2022-08-19T01:43:05;7.47;;;4.57;;
56537;SDS011;42435;53.292;6.000;2022-08-19T01:45:31;8.13;;;3.70;;
56537;SDS011;42435;53.292;6.000;2022-08-19T01:47:58;6.95;;;5.07;;
56537;SDS011;42435;53.292;6.000;2022-08-19T01:50:24;12.88;;;5.30;;
56537;SDS011;42435;53.292;6.000;2022-08-19T01:52:50;5.18;;;3.67;;
56537;SDS011;42435;53.292;6.000;2022-08-19T01:55:18;6.03;;;3.17;;
56537;SDS011;42435;53.292;6.000;2022-08-19T01:57:46;4.32;;;3.47;;
56537;SDS011;42435;53.292;6.000;2022-08-19T02:00:16;5.60;;;3.53;;
56537;SDS011;42435;53.292;6.000;2022-08-19T02:02:43;5.70;;;4.07;;
56537;SDS011;42435;53.292;6.000;2022-08-19T02:05:09;6.10;;;3.75;;
56537;SDS011;42435;53.292;6.000;2022-08-19T02:07:36;5.70;;;3.75;;
56537;SDS011;42435;53.292;6.000;2022-08-19T02:10:04;6.45;;;3.67;;
56537;SDS011;42435;53.292;6.000;2022-08-19T02:12:31;5.85;;;3.55;;
56537;SDS011;42435;53.292;6.000;2022-08-19T02:14:58;5.65;;;3.42;;
56537;SDS011;42435;53.292;6.000;2022-08-19T02:17:24;5.80;;;4.03;;
56537;SDS011;42435;53.292;6.000;2022-08-19T02:19:50;8.23;;;5.35;;
56537;SDS011;42435;53.292;6.000;2022-08-19T02:22:15;7.75;;;3.67;;
56537;SDS011;42435;53.292;6.000;2022-08-19T02:24:41;6.82;;;4.40;;
56537;SDS011;42435;53.292;6.000;2022-08-19T02:27:07;6.93;;;4.22;;
56537;SDS011;42435;53.292;6.000;2022-08-19T02:29:32;8.43;;;4.43;;
56537;SDS011;42435;53.292;6.000;2022-08-19T02:31:58;6.95;;;4.55;;
56537;SDS011;42435;53.292;6.000;2022-08-19T02:34:24;9.73;;;5.13;;
56537;SDS011;42435;53.292;6.000;2022-08-19T02:36:50;8.50;;;4.57;;
56537;SDS011;42435;53.292;6.000;2022-08-19T02:39:16;11.38;;;4.95;;
56537;SDS011;42435;53.292;6.000;2022-08-19T02:41:42;7.57;;;4.53;;
56537;SDS011;42435;53.292;6.000;2022-08-19T02:44:07;8.23;;;4.30;;
56537;SDS011;42435;53.292;6.000;2022-08-19T02:46:33;8.52;;;5.32;;
56537;SDS011;42435;53.292;6.000;2022-08-19T02:49:00;14.50;;;6.03;;
56537;SDS011;42435;53.292;6.000;2022-08-19T02:51:30;7.97;;;5.35;;
56537;SDS011;42435;53.292;6.000;2022-08-19T02:53:58;10.52;;;5.85;;
56537;SDS011;42435;53.292;6.000;2022-08-19T02:56:25;9.38;;;6.05;;
56537;SDS011;42435;53.292;6.000;2022-08-19T02:58:52;10.48;;;5.10;;
56537;SDS011;42435;53.292;6.000;2022-08-19T03:01:19;8.65;;;5.32;;
56537;SDS011;42435;53.292;6.000;2022-08-19T03:03:49;9.95;;;5.85;;
56537;SDS011;42435;53.292;6.000;2022-08-19T03:06:16;7.43;;;5.15;;
56537;SDS011;42435;53.292;6.000;2022-08-19T03:08:43;8.43;;;4.72;;
56537;SDS011;42435;53.292;6.000;2022-08-19T03:11:17;14.73;;;7.03;;
56537;SDS011;42435;53.292;6.000;2022-08-19T03:13:45;9.80;;;6.03;;
56537;SDS011;42435;53.292;6.000;2022-08-19T03:16:11;9.18;;;5.30;;
56537;SDS011;42435;53.292;6.000;2022-08-19T03:18:37;9.55;;;5.82;;
56537;SDS011;42435;53.292;6.000;2022-08-19T03:21:04;8.85;;;5.20;;
56537;SDS011;42435;53.292;6.000;2022-08-19T03:23:30;7.93;;;4.75;;
56537;SDS011;42435;53.292;6.000;2022-08-19T03:25:55;10.68;;;5.70;;
56537;SDS011;42435;53.292;6.000;2022-08-19T03:28:21;9.75;;;5.50;;
56537;SDS011;42435;53.292;6.000;2022-08-19T03:31:00;8.60;;;4.57;;
56537;SDS011;42435;53.292;6.000;2022-08-19T03:33:35;10.63;;;6.10;;
56537;SDS011;42435;53.292;6.000;2022-08-19T03:38:32;8.65;;;4.88;;
56537;SDS011;42435;53.292;6.000;2022-08-19T03:41:01;9.73;;;4.75;;
56537;SDS011;42435;53.292;6.000;2022-08-19T03:43:28;10.48;;;5.00;;
56537;SDS011;42435;53.292;6.000;2022-08-19T03:46:00;9.02;;;5.00;;
56537;SDS011;42435;53.292;6.000;2022-08-19T03:48:30;10.95;;;5.88;;
56537;SDS011;42435;53.292;6.000;2022-08-19T03:50:57;10.95;;;5.50;;
56537;SDS011;42435;53.292;6.000;2022-08-19T03:53:24;9.02;;;4.60;;
56537;SDS011;42435;53.292;6.000;2022-08-19T03:55:54;10.85;;;6.22;;
56537;SDS011;42435;53.292;6.000;2022-08-19T03:58:21;9.23;;;5.90;;
56537;SDS011;42435;53.292;6.000;2022-08-19T04:00:47;9.32;;;5.22;;
56537;SDS011;42435;53.292;6.000;2022-08-19T04:03:13;9.45;;;5.50;;
56537;SDS011;42435;53.292;6.000;2022-08-19T04:05:42;8.93;;;5.85;;
56537;SDS011;42435;53.292;6.000;2022-08-19T04:08:08;8.63;;;4.43;;
56537;SDS011;42435;53.292;6.000;2022-08-19T04:10:36;8.82;;;5.30;;
56537;SDS011;42435;53.292;6.000;2022-08-19T04:13:03;7.93;;;4.53;;
56537;SDS011;42435;53.292;6.000;2022-08-19T04:15:30;6.80;;;4.70;;
56537;SDS011;42435;53.292;6.000;2022-08-19T04:18:00;10.18;;;5.43;;
56537;SDS011;42435;53.292;6.000;2022-08-19T04:20:26;9.02;;;4.72;;
56537;SDS011;42435;53.292;6.000;2022-08-19T04:22:52;7.80;;;4.38;;
56537;SDS011;42435;53.292;6.000;2022-08-19T04:25:17;8.50;;;4.60;;
56537;SDS011;42435;53.292;6.000;2022-08-19T04:27:43;9.75;;;4.65;;
56537;SDS011;42435;53.292;6.000;2022-08-19T04:30:11;8.35;;;4.93;;
56537;SDS011;42435;53.292;6.000;2022-08-19T04:32:38;9.40;;;5.13;;
56537;SDS011;42435;53.292;6.000;2022-08-19T04:35:04;9.35;;;4.82;;
56537;SDS011;42435;53.292;6.000;2022-08-19T04:37:30;8.52;;;4.55;;
56537;SDS011;42435;53.292;6.000;2022-08-19T04:39:58;8.07;;;5.30;;
56537;SDS011;42435;53.292;6.000;2022-08-19T04:42:43;12.70;;;7.95;;
56537;SDS011;42435;53.292;6.000;2022-08-19T04:45:10;11.48;;;7.53;;
56537;SDS011;42435;53.292;6.000;2022-08-19T04:47:42;10.60;;;7.40;;
56537;SDS011;42435;53.292;6.000;2022-08-19T04:50:09;12.27;;;8.35;;
56537;SDS011;42435;53.292;6.000;2022-08-19T04:52:36;13.60;;;7.53;;
56537;SDS011;42435;53.292;6.000;2022-08-19T04:55:02;12.57;;;8.02;;
56537;SDS011;42435;53.292;6.000;2022-08-19T04:57:30;10.32;;;7.90;;
56537;SDS011;42435;53.292;6.000;2022-08-19T04:59:55;11.77;;;7.83;;
56537;SDS011;42435;53.292;6.000;2022-08-19T05:02:22;12.27;;;8.00;;
56537;SDS011;42435;53.292;6.000;2022-08-19T05:04:49;11.98;;;8.38;;
56537;SDS011;42435;53.292;6.000;2022-08-19T05:07:15;11.20;;;7.93;;
56537;SDS011;42435;53.292;6.000;2022-08-19T05:09:41;11.50;;;7.63;;
56537;SDS011;42435;53.292;6.000;2022-08-19T05:12:07;12.73;;;8.63;;
56537;SDS011;42435;53.292;6.000;2022-08-19T05:14:33;11.68;;;7.32;;
56537;SDS011;42435;53.292;6.000;2022-08-19T05:17:01;11.05;;;7.38;;
56537;SDS011;42435;53.292;6.000;2022-08-19T05:19:28;8.77;;;5.70;;
56537;SDS011;42435;53.292;6.000;2022-08-19T05:22:30;9.15;;;5.68;;
56537;SDS011;42435;53.292;6.000;2022-08-19T05:25:22;9.85;;;4.97;;
56537;SDS011;42435;53.292;6.000;2022-08-19T05:31:24;10.80;;;5.85;;
56537;SDS011;42435;53.292;6.000;2022-08-19T05:33:49;9.23;;;5.80;;
56537;SDS011;42435;53.292;6.000;2022-08-19T05:36:15;6.78;;;4.45;;
56537;SDS011;42435;53.292;6.000;2022-08-19T05:38:40;10.02;;;5.35;;
56537;SDS011;42435;53.292;6.000;2022-08-19T05:41:07;10.35;;;6.20;;
56537;SDS011;42435;53.292;6.000;2022-08-19T05:43:37;9.13;;;4.88;;
56537;SDS011;42435;53.292;6.000;2022-08-19T05:46:04;9.80;;;5.85;;
56537;SDS011;42435;53.292;6.000;2022-08-19T05:48:31;9.88;;;5.47;;
56537;SDS011;42435;53.292;6.000;2022-08-19T05:51:06;9.43;;;5.55;;
56537;SDS011;42435;53.292;6.000;2022-08-19T05:53:34;11.50;;;6.07;;
56537;SDS011;42435;53.292;6.000;2022-08-19T05:56:07;11.93;;;6.07;;
56537;SDS011;42435;53.292;6.000;2022-08-19T05:58:35;12.70;;;6.38;;
56537;SDS011;42435;53.292;6.000;2022-08-19T06:01:02;12.63;;;6.38;;
56537;SDS011;42435;53.292;6.000;2022-08-19T06:03:32;10.57;;;5.35;;
56537;SDS011;42435;53.292;6.000;2022-08-19T06:05:58;11.30;;;6.20;;
56537;SDS011;42435;53.292;6.000;2022-08-19T06:08:25;8.50;;;5.70;;
56537;SDS011;42435;53.292;6.000;2022-08-19T06:10:51;11.98;;;6.30;;
56537;SDS011;42435;53.292;6.000;2022-08-19T06:13:18;12.07;;;6.88;;
56537;SDS011;42435;53.292;6.000;2022-08-19T06:15:44;11.40;;;6.10;;
56537;SDS011;42435;53.292;6.000;2022-08-19T06:20:37;11.98;;;5.72;;
56537;SDS011;42435;53.292;6.000;2022-08-19T06:23:03;12.50;;;6.68;;
56537;SDS011;42435;53.292;6.000;2022-08-19T06:25:28;12.98;;;6.28;;
56537;SDS011;42435;53.292;6.000;2022-08-19T06:27:54;11.48;;;6.88;;
56537;SDS011;42435;53.292;6.000;2022-08-19T06:30:20;9.38;;;6.10;;
56537;SDS011;42435;53.292;6.000;2022-08-19T06:32:46;10.80;;;6.53;;
56537;SDS011;42435;53.292;6.000;2022-08-19T06:35:11;9.57;;;5.97;;
56537;SDS011;42435;53.292;6.000;2022-08-19T06:37:39;12.52;;;6.32;;
56537;SDS011;42435;53.292;6.000;2022-08-19T06:40:05;9.07;;;5.97;;
56537;SDS011;42435;53.292;6.000;2022-08-19T06:42:33;9.68;;;6.35;;
56537;SDS011;42435;53.292;6.000;2022-08-19T06:44:59;12.48;;;7.05;;
56537;SDS011;42435;53.292;6.000;2022-08-19T06:47:27;10.93;;;6.45;;
56537;SDS011;42435;53.292;6.000;2022-08-19T06:49:54;9.35;;;6.22;;
56537;SDS011;42435;53.292;6.000;2022-08-19T06:52:25;9.02;;;5.53;;
56537;SDS011;42435;53.292;6.000;2022-08-19T06:54:50;9.82;;;6.03;;
56537;SDS011;42435;53.292;6.000;2022-08-19T06:57:16;10.95;;;7.13;;
56537;SDS011;42435;53.292;6.000;2022-08-19T06:59:41;11.55;;;6.80;;
56537;SDS011;42435;53.292;6.000;2022-08-19T07:02:07;11.23;;;6.20;;
56537;SDS011;42435;53.292;6.000;2022-08-19T07:04:34;9.80;;;6.75;;
56537;SDS011;42435;53.292;6.000;2022-08-19T07:07:01;11.73;;;6.78;;
56537;SDS011;42435;53.292;6.000;2022-08-19T07:09:31;9.70;;;6.50;;
56537;SDS011;42435;53.292;6.000;2022-08-19T07:11:56;10.88;;;6.88;;
56537;SDS011;42435;53.292;6.000;2022-08-19T07:14:23;9.32;;;5.60;;
56537;SDS011;42435;53.292;6.000;2022-08-19T07:16:51;8.68;;;5.78;;
56537;SDS011;42435;53.292;6.000;2022-08-19T07:19:20;8.45;;;6.07;;
56537;SDS011;42435;53.292;6.000;2022-08-19T07:21:47;11.50;;;6.90;;
56537;SDS011;42435;53.292;6.000;2022-08-19T07:24:16;10.32;;;6.65;;
56537;SDS011;42435;53.292;6.000;2022-08-19T07:26:42;11.25;;;7.40;;
56537;SDS011;42435;53.292;6.000;2022-08-19T07:29:08;10.82;;;6.45;;
56537;SDS011;42435;53.292;6.000;2022-08-19T07:31:35;10.25;;;7.28;;
56537;SDS011;42435;53.292;6.000;2022-08-19T07:34:02;12.75;;;7.80;;
56537;SDS011;42435;53.292;6.000;2022-08-19T07:36:33;11.52;;;7.20;;
56537;SDS011;42435;53.292;6.000;2022-08-19T07:39:01;11.18;;;7.07;;
56537;SDS011;42435;53.292;6.000;2022-08-19T07:41:37;12.15;;;8.10;;
56537;SDS011;42435;53.292;6.000;2022-08-19T07:44:03;12.85;;;8.77;;
56537;SDS011;42435;53.292;6.000;2022-08-19T07:46:30;14.73;;;8.57;;
56537;SDS011;42435;53.292;6.000;2022-08-19T07:48:57;11.35;;;7.57;;
56537;SDS011;42435;53.292;6.000;2022-08-19T07:53:49;13.05;;;8.20;;
56537;SDS011;42435;53.292;6.000;2022-08-19T07:56:15;14.27;;;9.05;;
56537;SDS011;42435;53.292;6.000;2022-08-19T07:58:43;12.98;;;8.52;;
56537;SDS011;42435;53.292;6.000;2022-08-19T08:01:11;12.52;;;8.95;;
56537;SDS011;42435;53.292;6.000;2022-08-19T08:03:38;13.30;;;9.25;;
56537;SDS011;42435;53.292;6.000;2022-08-19T08:06:23;13.68;;;9.25;;
56537;SDS011;42435;53.292;6.000;2022-08-19T08:09:08;11.73;;;8.27;;
56537;SDS011;42435;53.292;6.000;2022-08-19T08:11:42;14.05;;;9.32;;
56537;SDS011;42435;53.292;6.000;2022-08-19T08:14:17;12.65;;;8.90;;
56537;SDS011;42435;53.292;6.000;2022-08-19T08:17:04;14.18;;;9.88;;
56537;SDS011;42435;53.292;6.000;2022-08-19T08:19:30;13.38;;;9.18;;
56537;SDS011;42435;53.292;6.000;2022-08-19T08:21:57;14.75;;;9.40;;
56537;SDS011;42435;53.292;6.000;2022-08-19T08:24:24;13.02;;;8.52;;
56537;SDS011;42435;53.292;6.000;2022-08-19T08:26:53;15.50;;;10.63;;
56537;SDS011;42435;53.292;6.000;2022-08-19T08:29:19;17.13;;;10.75;;
56537;SDS011;42435;53.292;6.000;2022-08-19T08:31:45;15.85;;;10.40;;
56537;SDS011;42435;53.292;6.000;2022-08-19T08:36:38;13.70;;;9.15;;
56537;SDS011;42435;53.292;6.000;2022-08-19T08:39:08;14.68;;;9.80;;
56537;SDS011;42435;53.292;6.000;2022-08-19T08:41:37;13.45;;;9.32;;
56537;SDS011;42435;53.292;6.000;2022-08-19T08:47:18;13.00;;;9.35;;
56537;SDS011;42435;53.292;6.000;2022-08-19T08:49:49;16.30;;;11.02;;
56537;SDS011;42435;53.292;6.000;2022-08-19T08:52:31;16.73;;;11.70;;
56537;SDS011;42435;53.292;6.000;2022-08-19T08:55:14;14.32;;;10.02;;
56537;SDS011;42435;53.292;6.000;2022-08-19T09:00:20;21.00;;;12.52;;
56537;SDS011;42435;53.292;6.000;2022-08-19T09:02:49;15.95;;;12.07;;
56537;SDS011;42435;53.292;6.000;2022-08-19T09:05:15;18.90;;;15.30;;
56537;SDS011;42435;53.292;6.000;2022-08-19T09:20:27;18.40;;;11.70;;
56537;SDS011;42435;53.292;6.000;2022-08-19T09:22:52;19.38;;;15.02;;
56537;SDS011;42435;53.292;6.000;2022-08-19T09:25:19;17.60;;;13.68;;
56537;SDS011;42435;53.292;6.000;2022-08-19T09:27:48;18.13;;;13.68;;
56537;SDS011;42435;53.292;6.000;2022-08-19T09:30:19;22.63;;;16.88;;
56537;SDS011;42435;53.292;6.000;2022-08-19T09:32:48;20.35;;;16.48;;
56537;SDS011;42435;53.292;6.000;2022-08-19T09:35:17;21.45;;;15.80;;
56537;SDS011;42435;53.292;6.000;2022-08-19T09:37:43;21.48;;;16.17;;
56537;SDS011;42435;53.292;6.000;2022-08-19T09:40:09;19.02;;;14.13;;
56537;SDS011;42435;53.292;6.000;2022-08-19T09:42:36;23.20;;;16.02;;
56537;SDS011;42435;53.292;6.000;2022-08-19T09:45:02;26.00;;;17.63;;
56537;SDS011;42435;53.292;6.000;2022-08-19T09:47:28;22.05;;;15.60;;
56537;SDS011;42435;53.292;6.000;2022-08-19T09:49:54;20.02;;;13.88;;
56537;SDS011;42435;53.292;6.000;2022-08-19T09:52:19;24.17;;;16.02;;
56537;SDS011;42435;53.292;6.000;2022-08-19T09:54:51;19.13;;;12.60;;
56537;SDS011;42435;53.292;6.000;2022-08-19T09:57:17;19.95;;;13.60;;
56537;SDS011;42435;53.292;6.000;2022-08-19T09:59:43;19.23;;;13.57;;
56537;SDS011;42435;53.292;6.000;2022-08-19T10:02:09;20.95;;;13.45;;
56537;SDS011;42435;53.292;6.000;2022-08-19T10:04:35;19.20;;;12.60;;
56537;SDS011;42435;53.292;6.000;2022-08-19T10:07:20;18.85;;;13.57;;
56537;SDS011;42435;53.292;6.000;2022-08-19T10:09:46;19.67;;;12.20;;
56537;SDS011;42435;53.292;6.000;2022-08-19T10:12:12;17.48;;;11.48;;
56537;SDS011;42435;53.292;6.000;2022-08-19T10:14:39;14.65;;;9.70;;
56537;SDS011;42435;53.292;6.000;2022-08-19T10:17:04;16.02;;;10.20;;
56537;SDS011;42435;53.292;6.000;2022-08-19T10:19:30;16.40;;;10.43;;
56537;SDS011;42435;53.292;6.000;2022-08-19T10:22:04;18.58;;;12.18;;
56537;SDS011;42435;53.292;6.000;2022-08-19T10:24:32;13.93;;;9.95;;
56537;SDS011;42435;53.292;6.000;2022-08-19T10:26:59;13.50;;;9.45;;
56537;SDS011;42435;53.292;6.000;2022-08-19T10:29:25;14.75;;;10.18;;
56537;SDS011;42435;53.292;6.000;2022-08-19T10:31:53;14.65;;;8.90;;
56537;SDS011;42435;53.292;6.000;2022-08-19T10:34:18;13.98;;;9.02;;
56537;SDS011;42435;53.292;6.000;2022-08-19T10:36:44;12.02;;;8.70;;
56537;SDS011;42435;53.292;6.000;2022-08-19T10:39:10;13.55;;;9.52;;
56537;SDS011;42435;53.292;6.000;2022-08-19T10:41:38;14.23;;;8.88;;
56537;SDS011;42435;53.292;6.000;2022-08-19T10:44:06;9.38;;;7.53;;
56537;SDS011;42435;53.292;6.000;2022-08-19T10:46:34;12.75;;;8.85;;
56537;SDS011;42435;53.292;6.000;2022-08-19T10:49:03;13.48;;;8.57;;
56537;SDS011;42435;53.292;6.000;2022-08-19T10:51:30;11.65;;;8.35;;
56537;SDS011;42435;53.292;6.000;2022-08-19T10:54:15;11.63;;;8.00;;
56537;SDS011;42435;53.292;6.000;2022-08-19T10:56:41;11.05;;;8.18;;
56537;SDS011;42435;53.292;6.000;2022-08-19T10:59:20;12.63;;;9.07;;
56537;SDS011;42435;53.292;6.000;2022-08-19T11:01:48;11.30;;;8.65;;
56537;SDS011;42435;53.292;6.000;2022-08-19T11:04:15;14.05;;;8.88;;
56537;SDS011;42435;53.292;6.000;2022-08-19T11:06:43;9.82;;;6.45;;
56537;SDS011;42435;53.292;6.000;2022-08-19T11:09:12;11.13;;;7.60;;
56537;SDS011;42435;53.292;6.000;2022-08-19T11:11:43;12.13;;;7.07;;
56537;SDS011;42435;53.292;6.000;2022-08-19T11:14:10;9.18;;;6.13;;
56537;SDS011;42435;53.292;6.000;2022-08-19T11:16:39;10.38;;;7.25;;
56537;SDS011;42435;53.292;6.000;2022-08-19T11:19:05;9.48;;;6.68;;
56537;SDS011;42435;53.292;6.000;2022-08-19T11:21:34;11.48;;;6.70;;
56537;SDS011;42435;53.292;6.000;2022-08-19T11:24:03;7.05;;;5.55;;
56537;SDS011;42435;53.292;6.000;2022-08-19T11:26:31;12.95;;;7.07;;
56537;SDS011;42435;53.292;6.000;2022-08-19T11:28:58;8.55;;;6.32;;
56537;SDS011;42435;53.292;6.000;2022-08-19T11:31:29;11.50;;;7.30;;
56537;SDS011;42435;53.292;6.000;2022-08-19T11:33:57;8.52;;;5.55;;
56537;SDS011;42435;53.292;6.000;2022-08-19T11:36:24;11.27;;;7.20;;
56537;SDS011;42435;53.292;6.000;2022-08-19T11:38:51;9.88;;;7.15;;
56537;SDS011;42435;53.292;6.000;2022-08-19T11:41:17;7.40;;;6.13;;
56537;SDS011;42435;53.292;6.000;2022-08-19T11:43:44;6.82;;;6.03;;
56537;SDS011;42435;53.292;6.000;2022-08-19T11:48:37;8.25;;;4.47;;
56537;SDS011;42435;53.292;6.000;2022-08-19T11:51:04;6.83;;;5.40;;
56537;SDS011;42435;53.292;6.000;2022-08-19T11:53:32;6.35;;;4.85;;
56537;SDS011;42435;53.292;6.000;2022-08-19T11:55:59;7.93;;;4.55;;
56537;SDS011;42435;53.292;6.000;2022-08-19T11:58:24;5.20;;;4.45;;
56537;SDS011;42435;53.292;6.000;2022-08-19T12:00:50;7.82;;;4.82;;
56537;SDS011;42435;53.292;6.000;2022-08-19T12:03:16;7.65;;;4.97;;
56537;SDS011;42435;53.292;6.000;2022-08-19T12:05:43;8.30;;;4.97;;
56537;SDS011;42435;53.292;6.000;2022-08-19T12:08:09;8.48;;;5.00;;
56537;SDS011;42435;53.292;6.000;2022-08-19T12:10:35;8.27;;;5.78;;
56537;SDS011;42435;53.292;6.000;2022-08-19T12:13:00;11.40;;;5.65;;
56537;SDS011;42435;53.292;6.000;2022-08-19T12:15:26;11.50;;;5.05;;
56537;SDS011;42435;53.292;6.000;2022-08-19T12:17:54;14.32;;;5.78;;
56537;SDS011;42435;53.292;6.000;2022-08-19T12:20:21;8.70;;;6.22;;
56537;SDS011;42435;53.292;6.000;2022-08-19T12:22:48;12.88;;;7.05;;
56537;SDS011;42435;53.292;6.000;2022-08-19T12:25:14;11.25;;;7.20;;
56537;SDS011;42435;53.292;6.000;2022-08-19T12:27:40;10.82;;;7.40;;
56537;SDS011;42435;53.292;6.000;2022-08-19T12:30:06;10.15;;;6.75;;
56537;SDS011;42435;53.292;6.000;2022-08-19T12:32:34;9.48;;;6.18;;
56537;SDS011;42435;53.292;6.000;2022-08-19T12:34:59;8.25;;;5.53;;
56537;SDS011;42435;53.292;6.000;2022-08-19T12:37:26;10.18;;;5.63;;
56537;SDS011;42435;53.292;6.000;2022-08-19T12:39:51;8.52;;;5.63;;
56537;SDS011;42435;53.292;6.000;2022-08-19T12:42:17;10.55;;;6.38;;
56537;SDS011;42435;53.292;6.000;2022-08-19T12:44:43;8.13;;;5.47;;
56537;SDS011;42435;53.292;6.000;2022-08-19T12:47:09;8.80;;;6.43;;
56537;SDS011;42435;53.292;6.000;2022-08-19T12:49:38;11.43;;;6.05;;
56537;SDS011;42435;53.292;6.000;2022-08-19T12:52:05;9.43;;;5.20;;
56537;SDS011;42435;53.292;6.000;2022-08-19T12:54:33;12.20;;;6.75;;
56537;SDS011;42435;53.292;6.000;2022-08-19T12:57:00;10.40;;;6.55;;
56537;SDS011;42435;53.292;6.000;2022-08-19T12:59:29;8.38;;;5.80;;
56537;SDS011;42435;53.292;6.000;2022-08-19T13:01:54;10.23;;;7.20;;
56537;SDS011;42435;53.292;6.000;2022-08-19T13:04:20;14.05;;;6.55;;
56537;SDS011;42435;53.292;6.000;2022-08-19T13:06:46;9.23;;;6.25;;
56537;SDS011;42435;53.292;6.000;2022-08-19T13:09:11;9.65;;;6.60;;
56537;SDS011;42435;53.292;6.000;2022-08-19T13:11:37;10.52;;;6.38;;
56537;SDS011;42435;53.292;6.000;2022-08-19T13:14:03;10.60;;;6.90;;
56537;SDS011;42435;53.292;6.000;2022-08-19T13:16:29;8.45;;;6.22;;
56537;SDS011;42435;53.292;6.000;2022-08-19T13:18:55;9.75;;;6.10;;
56537;SDS011;42435;53.292;6.000;2022-08-19T13:21:23;7.15;;;5.88;;
56537;SDS011;42435;53.292;6.000;2022-08-19T13:23:51;11.07;;;5.85;;
56537;SDS011;42435;53.292;6.000;2022-08-19T13:26:17;8.73;;;6.55;;
56537;SDS011;42435;53.292;6.000;2022-08-19T13:28:44;8.65;;;5.80;;
56537;SDS011;42435;53.292;6.000;2022-08-19T13:31:30;10.30;;;6.43;;
56537;SDS011;42435;53.292;6.000;2022-08-19T13:34:17;9.48;;;6.60;;
56537;SDS011;42435;53.292;6.000;2022-08-19T13:36:52;8.13;;;6.50;;
56537;SDS011;42435;53.292;6.000;2022-08-19T13:39:18;9.27;;;6.18;;
56537;SDS011;42435;53.292;6.000;2022-08-19T13:41:45;7.28;;;5.00;;
56537;SDS011;42435;53.292;6.000;2022-08-19T13:44:13;11.43;;;6.40;;
56537;SDS011;42435;53.292;6.000;2022-08-19T13:46:40;11.90;;;6.88;;
56537;SDS011;42435;53.292;6.000;2022-08-19T13:49:09;10.75;;;7.25;;
56537;SDS011;42435;53.292;6.000;2022-08-19T13:51:35;8.55;;;6.03;;
56537;SDS011;42435;53.292;6.000;2022-08-19T13:54:02;8.05;;;6.20;;
56537;SDS011;42435;53.292;6.000;2022-08-19T13:56:27;8.40;;;6.43;;
56537;SDS011;42435;53.292;6.000;2022-08-19T13:58:53;10.40;;;6.03;;
56537;SDS011;42435;53.292;6.000;2022-08-19T14:01:23;9.85;;;6.78;;
56537;SDS011;42435;53.292;6.000;2022-08-19T14:03:49;10.13;;;6.68;;
56537;SDS011;42435;53.292;6.000;2022-08-19T14:06:15;11.75;;;6.18;;
56537;SDS011;42435;53.292;6.000;2022-08-19T14:08:41;11.35;;;6.28;;
56537;SDS011;42435;53.292;6.000;2022-08-19T14:11:08;6.78;;;5.00;;
56537;SDS011;42435;53.292;6.000;2022-08-19T14:13:34;8.55;;;5.78;;
56537;SDS011;42435;53.292;6.000;2022-08-19T14:16:00;8.60;;;6.28;;
56537;SDS011;42435;53.292;6.000;2022-08-19T14:18:25;8.32;;;5.85;;
56537;SDS011;42435;53.292;6.000;2022-08-19T14:20:51;7.30;;;4.90;;
56537;SDS011;42435;53.292;6.000;2022-08-19T14:23:17;8.50;;;4.78;;
56537;SDS011;42435;53.292;6.000;2022-08-19T14:25:43;7.07;;;5.03;;
56537;SDS011;42435;53.292;6.000;2022-08-19T14:28:09;7.43;;;5.40;;
56537;SDS011;42435;53.292;6.000;2022-08-19T14:30:35;7.80;;;5.47;;
56537;SDS011;42435;53.292;6.000;2022-08-19T14:33:03;6.78;;;4.88;;
56537;SDS011;42435;53.292;6.000;2022-08-19T14:35:30;7.50;;;4.88;;
56537;SDS011;42435;53.292;6.000;2022-08-19T14:38:01;5.97;;;3.70;;
56537;SDS011;42435;53.292;6.000;2022-08-19T14:40:29;8.18;;;4.07;;
56537;SDS011;42435;53.292;6.000;2022-08-19T14:42:56;5.97;;;3.53;;
56537;SDS011;42435;53.292;6.000;2022-08-19T14:45:27;9.20;;;5.30;;
56537;SDS011;42435;53.292;6.000;2022-08-19T14:47:53;7.65;;;4.90;;
56537;SDS011;42435;53.292;6.000;2022-08-19T14:50:18;8.10;;;4.68;;
56537;SDS011;42435;53.292;6.000;2022-08-19T14:52:45;5.90;;;3.67;;
56537;SDS011;42435;53.292;6.000;2022-08-19T14:55:12;6.85;;;3.75;;
56537;SDS011;42435;53.292;6.000;2022-08-19T14:57:42;8.52;;;3.90;;
56537;SDS011;42435;53.292;6.000;2022-08-19T15:00:09;4.38;;;2.90;;
56537;SDS011;42435;53.292;6.000;2022-08-19T15:02:38;4.40;;;2.92;;
56537;SDS011;42435;53.292;6.000;2022-08-19T15:05:04;4.90;;;3.13;;
56537;SDS011;42435;53.292;6.000;2022-08-19T15:07:30;4.65;;;3.30;;
56537;SDS011;42435;53.292;6.000;2022-08-19T15:09:56;6.93;;;3.65;;
56537;SDS011;42435;53.292;6.000;2022-08-19T15:12:22;7.18;;;4.40;;
56537;SDS011;42435;53.292;6.000;2022-08-19T15:14:47;5.10;;;3.90;;
56537;SDS011;42435;53.292;6.000;2022-08-19T15:17:15;5.75;;;3.75;;
56537;SDS011;42435;53.292;6.000;2022-08-19T15:19:41;5.90;;;4.07;;
56537;SDS011;42435;53.292;6.000;2022-08-19T15:22:07;6.65;;;4.10;;